Time;durP1;ratioP1;P1;durP2;ratioP2;P2;SDS_P1;SDS_P2;PMS_P1;PMS_P2;Temp;Humidity;BMP_temperature;BMP_pressure;BME280_temperature;BME280_humidity;BME280_pressure;Samples;Min_cycle;Max_cycle;Signal;HPM_P1;HPM_P2
2021/01/09 00:01:49;;;;;;;13.82;8.63;;;;;;;;;;5157176;28;20503;-47
2021/01/09 00:04:17;;;;;;;13.52;9.63;;;;;;;;;;5157323;28;20195;-51
2021/01/09 00:06:50;;;;;;;17.67;8.93;;;;;;;;;;5157486;28;20311;-56
2021/01/09 00:09:17;;;;;;;12.73;7.75;;;;;;;;;;5157212;28;20203;-52
2021/01/09 00:11:44;;;;;;;11.25;7.53;;;;;;;;;;5157587;28;20181;-48
2021/01/09 00:14:19;;;;;;;12.57;8.25;;;;;;;;;;5157675;28;20213;-51
2021/01/09 00:16:46;;;;;;;13.85;9.02;;;;;;;;;;5157889;27;20228;-54
2021/01/09 00:19:13;;;;;;;11.05;7.68;;;;;;;;;;5158133;27;20189;-48
2021/01/09 00:21:41;;;;;;;14.32;8.35;;;;;;;;;;5157007;28;20229;-52
2021/01/09 00:24:09;;;;;;;15.93;8.32;;;;;;;;;;5157036;28;20185;-43
2021/01/09 00:26:36;;;;;;;12.95;8.63;;;;;;;;;;5157055;28;20197;-50
2021/01/09 00:29:34;;;;;;;15.40;10.18;;;;;;;;;;5156545;28;20203;-54
2021/01/09 00:32:01;;;;;;;14.00;8.90;;;;;;;;;;5156590;28;20195;-53
2021/01/09 00:34:28;;;;;;;18.48;11.60;;;;;;;;;;5157388;27;20185;-52
2021/01/09 00:36:56;;;;;;;13.75;8.23;;;;;;;;;;5156929;28;20206;-45
2021/01/09 00:39:22;;;;;;;17.65;9.02;;;;;;;;;;5156949;27;20174;-46
2021/01/09 00:41:51;;;;;;;14.85;9.80;;;;;;;;;;5157043;28;20271;-46
2021/01/09 00:44:18;;;;;;;13.98;9.25;;;;;;;;;;5156651;28;20379;-47
2021/01/09 00:46:45;;;;;;;16.77;8.70;;;;;;;;;;5156639;27;20225;-53
2021/01/09 00:49:12;;;;;;;14.68;8.93;;;;;;;;;;5139141;28;20191;-53
2021/01/09 00:51:39;;;;;;;16.52;9.70;;;;;;;;;;5156171;28;20232;-49
2021/01/09 00:54:18;;;;;;;19.45;12.52;;;;;;;;;;5156333;28;20191;-50
2021/01/09 00:56:44;;;;;;;21.95;13.88;;;;;;;;;;5156417;28;20207;-53
2021/01/09 00:59:11;;;;;;;19.83;10.63;;;;;;;;;;5156339;28;20206;-49
2021/01/09 01:01:59;;;;;;;10.98;7.30;;;;;;;;;;5158141;27;20233;-52
2021/01/09 01:04:26;;;;;;;14.95;9.60;;;;;;;;;;5160112;27;20216;-55
2021/01/09 01:06:52;;;;;;;13.95;9.40;;;;;;;;;;5159788;27;20195;-50
2021/01/09 01:09:49;;;;;;;14.73;8.93;;;;;;;;;;5160317;27;20201;-46
2021/01/09 01:12:17;;;;;;;21.02;9.45;;;;;;;;;;5159932;27;20212;-49
2021/01/09 01:14:44;;;;;;;14.13;8.32;;;;;;;;;;5160267;27;20198;-52
2021/01/09 01:17:31;;;;;;;12.85;9.18;;;;;;;;;;5160258;27;20191;-49
2021/01/09 01:19:57;;;;;;;11.43;8.45;;;;;;;;;;5159501;27;20201;-53
2021/01/09 01:22:24;;;;;;;11.90;7.95;;;;;;;;;;5139063;27;20307;-51
2021/01/09 01:28:08;;;;;;;12.02;8.48;;;;;;;;;;5149675;27;20236;-49
2021/01/09 01:30:35;;;;;;;14.57;8.82;;;;;;;;;;5160025;27;20206;-51
2021/01/09 01:33:02;;;;;;;14.15;9.00;;;;;;;;;;5159888;27;20216;-54
2021/01/09 01:35:29;;;;;;;17.23;9.73;;;;;;;;;;5159971;27;20190;-50
2021/01/09 01:38:19;;;;;;;17.05;10.07;;;;;;;;;;5159800;27;20186;-48
2021/01/09 01:40:46;;;;;;;12.30;8.50;;;;;;;;;;5159284;27;20212;-53
2021/01/09 01:43:13;;;;;;;14.32;8.95;;;;;;;;;;5159399;27;20210;-46
2021/01/09 01:45:47;;;;;;;13.52;8.85;;;;;;;;;;5159595;27;20206;-49
2021/01/09 01:48:13;;;;;;;15.90;9.60;;;;;;;;;;5159251;27;20213;-49
2021/01/09 01:50:40;;;;;;;14.10;9.15;;;;;;;;;;5159485;27;20201;-51
2021/01/09 01:53:19;;;;;;;28.63;16.73;;;;;;;;;;5159185;27;20368;-52
2021/01/09 01:55:46;;;;;;;14.77;8.32;;;;;;;;;;5159730;27;20186;-52
2021/01/09 01:58:14;;;;;;;17.27;11.70;;;;;;;;;;5159578;27;20206;-46
2021/01/09 02:01:05;;;;;;;22.70;12.98;;;;;;;;;;5159123;27;20209;-47
2021/01/09 02:03:32;;;;;;;20.65;12.63;;;;;;;;;;5159290;27;20193;-52
2021/01/09 02:06:01;;;;;;;16.30;8.52;;;;;;;;;;5159482;27;20210;-50
2021/01/09 02:08:29;;;;;;;14.48;9.23;;;;;;;;;;5159392;27;20186;-52
2021/01/09 02:10:57;;;;;;;17.00;9.30;;;;;;;;;;5159377;27;20169;-43
2021/01/09 02:13:38;;;;;;;55.75;34.42;;;;;;;;;;5157548;27;20193;-57
2021/01/09 02:16:05;;;;;;;14.98;10.32;;;;;;;;;;5158663;27;20202;-53
2021/01/09 02:18:34;;;;;;;15.57;9.40;;;;;;;;;;5159267;27;20215;-53
2021/01/09 02:21:16;;;;;;;12.43;8.52;;;;;;;;;;5159033;27;20229;-50
2021/01/09 02:23:44;;;;;;;16.00;9.45;;;;;;;;;;5158907;27;20201;-43
2021/01/09 02:26:11;;;;;;;13.60;8.15;;;;;;;;;;5158748;27;20189;-51
2021/01/09 02:28:38;;;;;;;12.82;8.63;;;;;;;;;;5129881;28;20178;-47
2021/01/09 02:31:05;;;;;;;17.02;10.18;;;;;;;;;;5138194;28;20194;-44
2021/01/09 02:33:34;;;;;;;16.52;9.48;;;;;;;;;;5138057;28;20190;-48
2021/01/09 02:36:04;;;;;;;14.10;8.95;;;;;;;;;;5138045;28;20210;-51
2021/01/09 02:38:31;;;;;;;14.55;9.15;;;;;;;;;;5137610;28;20210;-47
2021/01/09 02:41:00;;;;;;;13.65;9.68;;;;;;;;;;5137951;28;20214;-52
2021/01/09 02:43:53;;;;;;;17.85;10.82;;;;;;;;;;5138044;28;20185;-42
2021/01/09 02:46:20;;;;;;;12.48;9.80;;;;;;;;;;5137502;28;20195;-49
2021/01/09 02:48:47;;;;;;;13.60;9.23;;;;;;;;;;5137895;28;20198;-46
2021/01/09 02:51:32;;;;;;;15.02;9.80;;;;;;;;;;5137489;28;20196;-49
2021/01/09 02:53:59;;;;;;;14.68;10.10;;;;;;;;;;5135951;28;20238;-47
2021/01/09 02:56:27;;;;;;;16.85;10.57;;;;;;;;;;5136263;28;20199;-55
2021/01/09 02:58:54;;;;;;;16.10;9.75;;;;;;;;;;5137650;28;20186;-48
2021/01/09 03:01:20;;;;;;;14.48;9.32;;;;;;;;;;5137531;28;20216;-53
2021/01/09 03:03:54;;;;;;;17.50;11.10;;;;;;;;;;5137643;28;20175;-48
2021/01/09 03:06:21;;;;;;;16.52;11.65;;;;;;;;;;5137342;28;20236;-51
2021/01/09 03:08:47;;;;;;;18.13;11.98;;;;;;;;;;5137871;28;20230;-50
2021/01/09 03:11:17;;;;;;;18.85;13.25;;;;;;;;;;5137623;28;20221;-55
2021/01/09 03:13:45;;;;;;;17.25;12.15;;;;;;;;;;5140147;27;20221;-47
2021/01/09 03:16:12;;;;;;;16.70;12.00;;;;;;;;;;5157391;27;20208;-48
2021/01/09 03:18:58;;;;;;;19.13;11.77;;;;;;;;;;5157499;27;20200;-52
2021/01/09 03:21:25;;;;;;;19.20;11.25;;;;;;;;;;5139699;27;20246;-51
2021/01/09 03:23:51;;;;;;;15.63;10.60;;;;;;;;;;5157774;27;20186;-52
2021/01/09 03:26:42;;;;;;;20.98;12.90;;;;;;;;;;5158274;27;20221;-53
2021/01/09 03:29:10;;;;;;;19.33;13.05;;;;;;;;;;5156115;27;20209;-45
2021/01/09 03:31:37;;;;;;;17.92;12.52;;;;;;;;;;5141407;27;20197;-53
2021/01/09 03:34:05;;;;;;;17.60;11.43;;;;;;;;;;5149979;27;20221;-52
2021/01/09 03:36:32;;;;;;;17.83;11.38;;;;;;;;;;5136688;28;20210;-50
2021/01/09 03:38:59;;;;;;;23.25;13.23;;;;;;;;;;5144458;27;20182;-53
2021/01/09 03:41:41;;;;;;;21.00;13.55;;;;;;;;;;5137362;28;20294;-54
2021/01/09 03:44:08;;;;;;;18.73;12.57;;;;;;;;;;5149738;27;20202;-50
2021/01/09 03:46:36;;;;;;;17.40;11.57;;;;;;;;;;5146786;27;20211;-54
2021/01/09 03:52:07;;;;;;;17.95;12.02;;;;;;;;;;5110843;28;20225;-53
2021/01/09 03:54:33;;;;;;;21.33;11.63;;;;;;;;;;5116722;28;20194;-54
2021/01/09 03:57:09;;;;;;;14.77;10.00;;;;;;;;;;5116983;28;20213;-51
2021/01/09 03:59:36;;;;;;;18.17;11.85;;;;;;;;;;5096335;28;20198;-49
2021/01/09 04:02:04;;;;;;;20.92;13.38;;;;;;;;;;5103829;28;20269;-52
2021/01/09 04:04:54;;;;;;;22.50;12.05;;;;;;;;;;5117331;28;20191;-55
2021/01/09 04:07:21;;;;;;;17.73;11.15;;;;;;;;;;5116795;28;20198;-50
2021/01/09 04:09:47;;;;;;;17.52;11.07;;;;;;;;;;5116638;28;20191;-48
2021/01/09 04:12:22;;;;;;;20.00;13.93;;;;;;;;;;5115958;28;20203;-54
2021/01/09 04:14:48;;;;;;;16.83;10.77;;;;;;;;;;5128213;28;20504;-51
2021/01/09 04:17:16;;;;;;;21.90;11.50;;;;;;;;;;5137540;28;20186;-48
2021/01/09 04:19:43;;;;;;;16.13;10.80;;;;;;;;;;5136407;28;20197;-54
2021/01/09 04:22:09;;;;;;;17.20;10.40;;;;;;;;;;5136912;28;20219;-53
2021/01/09 04:24:53;;;;;;;15.88;11.05;;;;;;;;;;5136878;28;20190;-55
2021/01/09 04:27:20;;;;;;;16.52;10.63;;;;;;;;;;5136939;27;20206;-55
2021/01/09 04:29:46;;;;;;;21.13;14.60;;;;;;;;;;5136612;28;20190;-48
2021/01/09 04:32:29;;;;;;;22.55;12.88;;;;;;;;;;5136474;28;20201;-47
2021/01/09 04:34:56;;;;;;;20.70;12.55;;;;;;;;;;5149797;27;20233;-51
2021/01/09 04:37:23;;;;;;;21.30;12.70;;;;;;;;;;5161266;27;20213;-52
2021/01/09 04:39:55;;;;;;;21.63;10.88;;;;;;;;;;5161081;27;20193;-53
2021/01/09 04:42:22;;;;;;;16.80;11.35;;;;;;;;;;5162052;27;20246;-54
2021/01/09 04:44:49;;;;;;;15.80;10.70;;;;;;;;;;5161221;27;20170;-53
2021/01/09 04:47:36;;;;;;;18.15;11.57;;;;;;;;;;5169796;27;20177;-58
2021/01/09 04:50:05;;;;;;;14.48;10.18;;;;;;;;;;5161445;27;20208;-53
2021/01/09 04:52:32;;;;;;;25.52;15.32;;;;;;;;;;5159360;27;20202;-56
2021/01/09 04:55:25;;;;;;;21.10;13.30;;;;;;;;;;5140971;28;20203;-55
2021/01/09 04:57:51;;;;;;;23.95;14.25;;;;;;;;;;5152644;27;20265;-55
2021/01/09 05:00:19;;;;;;;22.73;14.15;;;;;;;;;;5179743;27;20227;-53
2021/01/09 05:03:23;;;;;;;20.92;13.73;;;;;;;;;;5182129;27;20209;-55
2021/01/09 05:05:51;;;;;;;22.38;13.07;;;;;;;;;;5140928;27;20187;-49
2021/01/09 05:08:18;;;;;;;18.50;12.15;;;;;;;;;;5160747;27;20190;-53
2021/01/09 05:10:49;;;;;;;23.17;12.80;;;;;;;;;;5148445;27;20198;-49
2021/01/09 05:13:16;;;;;;;21.65;12.52;;;;;;;;;;5149036;27;20197;-56
2021/01/09 05:15:58;;;;;;;17.90;13.40;;;;;;;;;;5160250;27;20190;-52
2021/01/09 05:18:24;;;;;;;23.98;12.95;;;;;;;;;;5161185;27;20204;-49
2021/01/09 05:20:52;;;;;;;23.60;13.93;;;;;;;;;;5160520;27;20232;-58
2021/01/09 05:23:27;;;;;;;21.35;13.50;;;;;;;;;;5160806;27;20197;-54
2021/01/09 05:25:54;;;;;;;24.33;14.35;;;;;;;;;;5143900;27;20240;-54
2021/01/09 05:28:22;;;;;;;27.10;15.10;;;;;;;;;;5139297;28;20190;-58
2021/01/09 05:33:54;;;;;;;24.63;16.60;;;;;;;;;;5131926;28;20233;-53
2021/01/09 05:36:22;;;;;;;26.95;14.45;;;;;;;;;;5140131;28;20209;-51
2021/01/09 05:38:50;;;;;;;26.27;14.80;;;;;;;;;;5139716;28;20185;-54
2021/01/09 05:41:18;;;;;;;27.02;14.25;;;;;;;;;;5139582;28;20260;-55
2021/01/09 05:43:47;;;;;;;25.75;12.35;;;;;;;;;;5139606;28;20201;-54
2021/01/09 05:46:32;;;;;;;27.67;15.13;;;;;;;;;;5139496;28;20212;-52
2021/01/09 05:49:01;;;;;;;31.27;16.17;;;;;;;;;;5117861;28;20220;-47
2021/01/09 05:51:30;;;;;;;29.35;15.25;;;;;;;;;;5139419;28;20196;-52
2021/01/09 05:54:03;;;;;;;26.20;14.45;;;;;;;;;;5139772;28;20190;-55
2021/01/09 05:56:30;;;;;;;26.50;12.65;;;;;;;;;;5139233;28;20212;-52
2021/01/09 05:58:59;;;;;;;30.90;14.52;;;;;;;;;;5139679;28;20207;-53
2021/01/09 06:01:36;;;;;;;28.85;14.10;;;;;;;;;;5139331;28;20213;-51
2021/01/09 06:04:04;;;;;;;30.08;13.35;;;;;;;;;;5139271;28;20208;-51
2021/01/09 06:06:39;;;;;;;32.70;13.93;;;;;;;;;;5139303;28;20269;-55
2021/01/09 06:09:08;;;;;;;22.52;12.65;;;;;;;;;;5139292;28;20212;-47
2021/01/09 06:11:39;;;;;;;27.45;14.07;;;;;;;;;;5138553;28;20203;-55
2021/01/09 06:14:07;;;;;;;28.40;13.77;;;;;;;;;;5137119;28;20196;-55
2021/01/09 06:19:38;;;;;;;25.45;13.35;;;;;;;;;;5119984;28;20228;-53
2021/01/09 06:22:05;;;;;;;30.63;15.05;;;;;;;;;;5155164;27;20213;-55
2021/01/09 06:24:51;;;;;;;30.95;14.60;;;;;;;;;;5159185;27;20200;-51
2021/01/09 06:27:23;;;;;;;34.35;15.68;;;;;;;;;;5159753;27;20196;-54
2021/01/09 06:29:50;;;;;;;24.50;13.70;;;;;;;;;;5159615;27;20197;-56
2021/01/09 06:35:21;;;;;;;23.30;12.88;;;;;;;;;;5136954;28;20259;-48
2021/01/09 06:37:49;;;;;;;23.85;14.00;;;;;;;;;;5138752;28;20198;-54
2021/01/09 06:40:23;;;;;;;25.98;14.00;;;;;;;;;;5138803;28;20210;-53
2021/01/09 06:42:51;;;;;;;28.80;15.07;;;;;;;;;;5150885;27;20236;-55
2021/01/09 06:45:19;;;;;;;32.70;16.42;;;;;;;;;;5159346;27;20252;-55
2021/01/09 06:47:57;;;;;;;31.17;16.40;;;;;;;;;;5159720;27;20212;-56
2021/01/09 06:50:36;;;;;;;35.25;16.35;;;;;;;;;;5159306;27;20201;-52
2021/01/09 06:53:05;;;;;;;27.67;15.25;;;;;;;;;;5159356;27;20241;-51
2021/01/09 06:55:54;;;;;;;28.27;14.30;;;;;;;;;;5159216;27;20190;-56
2021/01/09 06:58:28;;;;;;;33.25;16.38;;;;;;;;;;5158910;27;20265;-49
2021/01/09 07:01:17;;;;;;;30.75;16.38;;;;;;;;;;5159057;27;20250;-53
2021/01/09 07:03:58;;;;;;;30.95;17.63;;;;;;;;;;5159047;27;20206;-54
2021/01/09 07:06:43;;;;;;;29.92;16.20;;;;;;;;;;5158707;27;20207;-54
2021/01/09 07:09:10;;;;;;;29.63;15.30;;;;;;;;;;5159240;27;20197;-53
2021/01/09 07:11:55;;;;;;;23.90;15.27;;;;;;;;;;5149995;27;20187;-51
2021/01/09 07:14:22;;;;;;;28.08;15.55;;;;;;;;;;5158729;27;20206;-55
2021/01/09 07:16:49;;;;;;;27.73;14.00;;;;;;;;;;5158550;27;20182;-56
2021/01/09 07:19:24;;;;;;;28.23;15.65;;;;;;;;;;5158886;27;20209;-54
2021/01/09 07:21:54;;;;;;;27.73;15.65;;;;;;;;;;5158860;27;20221;-53
2021/01/09 07:24:23;;;;;;;29.85;16.27;;;;;;;;;;5159148;27;20185;-49
2021/01/09 07:26:59;;;;;;;31.48;17.83;;;;;;;;;;5158816;27;20228;-52
2021/01/09 07:29:27;;;;;;;28.75;15.20;;;;;;;;;;5158786;27;20234;-54
2021/01/09 07:31:54;;;;;;;27.13;14.95;;;;;;;;;;5159239;27;20193;-52
2021/01/09 07:34:23;;;;;;;22.88;15.15;;;;;;;;;;5159101;27;20189;-55
2021/01/09 07:36:53;;;;;;;26.70;15.55;;;;;;;;;;5158851;27;20212;-49
2021/01/09 07:39:25;;;;;;;27.92;14.98;;;;;;;;;;5158662;27;20202;-55
2021/01/09 07:41:52;;;;;;;28.85;15.70;;;;;;;;;;5153308;27;20281;-57
2021/01/09 07:44:20;;;;;;;25.02;15.13;;;;;;;;;;5132695;27;20231;-47
2021/01/09 07:46:50;;;;;;;26.13;15.23;;;;;;;;;;5097117;28;20192;-51
2021/01/09 07:52:25;;;;;;;27.00;16.02;;;;;;;;;;5117738;28;20178;-52
2021/01/09 07:54:55;;;;;;;27.98;16.33;;;;;;;;;;5116986;28;20187;-52
2021/01/09 07:57:33;;;;;;;45.65;23.83;;;;;;;;;;5117063;28;20210;-56
2021/01/09 08:00:07;;;;;;;30.23;17.77;;;;;;;;;;5116865;28;20196;-55
2021/01/09 08:02:35;;;;;;;27.40;15.65;;;;;;;;;;5116655;28;20291;-52
2021/01/09 08:05:10;;;;;;;30.10;17.38;;;;;;;;;;5116577;28;20191;-56
2021/01/09 08:07:38;;;;;;;30.77;16.50;;;;;;;;;;5116667;28;20186;-53
2021/01/09 08:10:25;;;;;;;33.13;15.90;;;;;;;;;;5116898;28;20172;-55
2021/01/09 08:12:58;;;;;;;27.42;15.50;;;;;;;;;;5120716;28;20192;-49
2021/01/09 08:15:25;;;;;;;28.48;15.90;;;;;;;;;;5120537;28;20203;-55
2021/01/09 08:18:28;;;;;;;31.08;16.40;;;;;;;;;;5120712;28;20198;-54
2021/01/09 08:20:55;;;;;;;31.70;16.15;;;;;;;;;;5120951;28;20199;-51
2021/01/09 08:23:22;;;;;;;33.95;17.50;;;;;;;;;;5120843;28;20184;-52
2021/01/09 08:25:53;;;;;;;35.15;16.65;;;;;;;;;;5120291;28;20195;-53
2021/01/09 08:28:22;;;;;;;33.90;18.17;;;;;;;;;;5102440;28;20187;-51
2021/01/09 08:30:48;;;;;;;32.00;17.10;;;;;;;;;;5120071;28;20182;-55
2021/01/09 08:33:37;;;;;;;31.25;20.23;;;;;;;;;;5120483;28;20270;-47
2021/01/09 08:36:07;;;;;;;40.38;19.05;;;;;;;;;;5120723;28;20199;-51
2021/01/09 08:38:34;;;;;;;37.20;17.35;;;;;;;;;;5120297;28;20398;-55
2021/01/09 08:41:04;;;;;;;42.80;19.40;;;;;;;;;;5120026;28;20234;-56
2021/01/09 08:43:32;;;;;;;44.22;19.48;;;;;;;;;;5125460;27;20233;-51
2021/01/09 08:45:59;;;;;;;42.47;18.50;;;;;;;;;;5161223;27;20249;-54
2021/01/09 08:48:29;;;;;;;35.60;19.15;;;;;;;;;;5161408;27;20189;-57
2021/01/09 08:50:57;;;;;;;40.42;21.38;;;;;;;;;;5160902;27;20186;-58
2021/01/09 08:53:25;;;;;;;42.33;21.85;;;;;;;;;;5161194;27;20238;-56
2021/01/09 08:56:10;;;;;;;40.30;20.48;;;;;;;;;;5161207;27;20213;-52
2021/01/09 08:58:39;;;;;;;43.53;21.92;;;;;;;;;;5160818;27;20182;-54
2021/01/09 09:01:07;;;;;;;47.47;23.50;;;;;;;;;;5160751;27;20253;-55
2021/01/09 09:04:03;;;;;;;48.20;22.02;;;;;;;;;;5160959;27;20183;-55
2021/01/09 09:06:32;;;;;;;44.17;22.70;;;;;;;;;;5141735;27;20190;-51
2021/01/09 09:08:59;;;;;;;46.67;22.65;;;;;;;;;;5140261;28;20217;-51
2021/01/09 09:11:29;;;;;;;41.03;21.30;;;;;;;;;;5140124;28;20207;-49
2021/01/09 09:14:06;;;;;;;47.45;22.20;;;;;;;;;;5138409;28;20217;-58
2021/01/09 09:16:34;;;;;;;45.33;23.00;;;;;;;;;;5139972;28;20194;-56
2021/01/09 09:19:14;;;;;;;50.20;24.55;;;;;;;;;;5140135;28;20222;-55
2021/01/09 09:21:43;;;;;;;43.33;23.15;;;;;;;;;;5150788;27;20246;-53
2021/01/09 09:24:10;;;;;;;49.78;24.77;;;;;;;;;;5160574;27;20226;-56
2021/01/09 09:26:43;;;;;;;64.80;26.23;;;;;;;;;;5131427;28;20188;-50
2021/01/09 09:29:16;;;;;;;49.75;25.10;;;;;;;;;;5157488;27;20187;-51
2021/01/09 09:31:44;;;;;;;46.67;24.35;;;;;;;;;;5161021;27;20184;-51
2021/01/09 09:34:31;;;;;;;46.20;23.98;;;;;;;;;;5161059;27;20191;-50
2021/01/09 09:37:01;;;;;;;47.47;23.35;;;;;;;;;;5160696;27;20202;-51
2021/01/09 09:39:28;;;;;;;56.63;25.65;;;;;;;;;;5160225;27;20190;-50
2021/01/09 09:42:14;;;;;;;48.10;23.17;;;;;;;;;;5160169;27;20245;-52
2021/01/09 09:44:42;;;;;;;52.55;24.67;;;;;;;;;;5159950;27;20190;-48
2021/01/09 09:47:09;;;;;;;50.65;23.05;;;;;;;;;;5159584;27;20187;-50
2021/01/09 09:49:47;;;;;;;46.55;23.15;;;;;;;;;;5159834;27;20174;-46
2021/01/09 09:52:26;;;;;;;51.13;23.40;;;;;;;;;;5159188;27;20214;-59
2021/01/09 09:55:26;;;;;;;47.92;22.95;;;;;;;;;;5155720;27;20195;-59
2021/01/09 09:58:05;;;;;;;42.67;23.30;;;;;;;;;;5139156;28;20211;-52
2021/01/09 10:00:48;;;;;;;40.78;20.50;;;;;;;;;;5156332;27;20261;-58
2021/01/09 10:03:15;;;;;;;44.13;21.30;;;;;;;;;;5159035;27;20202;-54
2021/01/09 10:05:42;;;;;;;60.80;25.40;;;;;;;;;;5159207;27;20203;-54
2021/01/09 10:08:15;;;;;;;51.75;26.70;;;;;;;;;;5159415;27;20248;-53
2021/01/09 10:10:43;;;;;;;44.03;23.88;;;;;;;;;;5159189;27;20205;-51
2021/01/09 10:13:10;;;;;;;51.50;23.92;;;;;;;;;;5159304;27;20202;-49
2021/01/09 10:15:49;;;;;;;54.50;22.73;;;;;;;;;;5159031;27;20187;-51
2021/01/09 10:18:17;;;;;;;48.10;24.10;;;;;;;;;;5158903;27;20194;-53
2021/01/09 10:20:44;;;;;;;52.63;24.50;;;;;;;;;;5159072;27;20222;-59
2021/01/09 10:23:28;;;;;;;44.47;22.05;;;;;;;;;;5166967;27;20203;-48
2021/01/09 10:25:56;;;;;;;46.10;23.38;;;;;;;;;;5180116;27;20188;-48
2021/01/09 10:28:23;;;;;;;49.15;21.50;;;;;;;;;;5179475;27;20249;-51
2021/01/09 10:31:06;;;;;;;48.53;23.70;;;;;;;;;;5165230;27;20254;-48
2021/01/09 10:33:34;;;;;;;63.97;26.85;;;;;;;;;;5157160;27;20469;-56
2021/01/09 10:36:01;;;;;;;51.42;26.02;;;;;;;;;;5157887;27;20191;-52
2021/01/09 10:38:34;;;;;;;53.88;24.50;;;;;;;;;;5158277;27;20187;-50
2021/01/09 10:41:01;;;;;;;57.22;25.55;;;;;;;;;;5156221;27;20210;-58
2021/01/09 10:43:28;;;;;;;42.08;21.77;;;;;;;;;;5164525;27;20198;-50
2021/01/09 10:46:29;;;;;;;62.53;24.23;;;;;;;;;;5179111;27;20194;-54
2021/01/09 10:48:57;;;;;;;50.50;21.70;;;;;;;;;;5179275;27;20197;-54
2021/01/09 10:51:26;;;;;;;48.13;24.73;;;;;;;;;;5178332;27;20227;-52
2021/01/09 10:54:01;;;;;;;60.08;24.85;;;;;;;;;;5147776;27;20255;-56
2021/01/09 10:56:29;;;;;;;54.67;24.73;;;;;;;;;;5157521;27;20205;-48
2021/01/09 10:58:58;;;;;;;55.90;26.13;;;;;;;;;;5157751;27;20194;-56
2021/01/09 11:01:27;;;;;;;47.63;23.75;;;;;;;;;;5156885;27;20214;-52
2021/01/09 11:03:55;;;;;;;49.47;23.00;;;;;;;;;;5157477;27;20187;-54
2021/01/09 11:06:29;;;;;;;48.97;24.08;;;;;;;;;;5157888;27;20187;-50
2021/01/09 11:08:56;;;;;;;50.25;22.05;;;;;;;;;;5152578;27;20641;-51
2021/01/09 11:11:23;;;;;;;52.97;24.63;;;;;;;;;;5157840;27;20197;-55
2021/01/09 11:13:57;;;;;;;48.17;22.50;;;;;;;;;;5163451;27;20182;-51
2021/01/09 11:16:25;;;;;;;59.33;24.20;;;;;;;;;;5177986;27;20189;-56
2021/01/09 11:18:52;;;;;;;56.38;23.52;;;;;;;;;;5159156;27;20203;-59
2021/01/09 11:21:25;;;;;;;57.25;24.55;;;;;;;;;;5158249;27;20279;-54
2021/01/09 11:23:55;;;;;;;53.15;23.95;;;;;;;;;;5157983;27;20193;-56
2021/01/09 11:26:23;;;;;;;54.17;24.40;;;;;;;;;;5156496;27;20218;-54
2021/01/09 11:28:51;;;;;;;48.22;24.05;;;;;;;;;;5157038;27;20216;-54
2021/01/09 11:31:17;;;;;;;53.92;22.98;;;;;;;;;;5156319;27;20197;-48
2021/01/09 11:33:45;;;;;;;49.15;22.70;;;;;;;;;;5153555;27;20235;-50
2021/01/09 11:36:20;;;;;;;62.28;26.02;;;;;;;;;;5151224;27;20190;-53
2021/01/09 11:38:49;;;;;;;53.38;24.30;;;;;;;;;;5156306;27;20193;-57
2021/01/09 11:41:17;;;;;;;59.05;26.08;;;;;;;;;;5156930;27;20207;-49
2021/01/09 11:43:56;;;;;;;54.08;24.23;;;;;;;;;;5157744;27;20190;-57
2021/01/09 11:46:29;;;;;;;54.20;24.17;;;;;;;;;;5140633;27;20233;-53
2021/01/09 11:48:57;;;;;;;55.88;23.60;;;;;;;;;;5149327;27;20179;-49
2021/01/09 11:51:34;;;;;;;55.40;23.75;;;;;;;;;;5157528;27;20182;-57
2021/01/09 11:54:01;;;;;;;56.38;24.70;;;;;;;;;;5158050;27;20216;-57
2021/01/09 11:56:31;;;;;;;49.55;23.42;;;;;;;;;;5154826;28;20189;-55
2021/01/09 11:59:01;;;;;;;62.58;26.13;;;;;;;;;;5153948;28;20230;-51
2021/01/09 12:01:36;;;;;;;57.45;25.20;;;;;;;;;;5137073;28;20244;-48
2021/01/09 12:04:04;;;;;;;55.10;24.63;;;;;;;;;;5151986;27;20209;-55
2021/01/09 12:06:31;;;;;;;51.90;23.23;;;;;;;;;;5156544;27;20191;-49
2021/01/09 12:08:58;;;;;;;46.45;23.27;;;;;;;;;;5156094;28;20222;-57
2021/01/09 12:11:24;;;;;;;50.08;24.85;;;;;;;;;;5156639;28;20218;-47
2021/01/09 12:13:53;;;;;;;57.33;24.40;;;;;;;;;;5156644;28;20190;-51
2021/01/09 12:16:33;;;;;;;62.85;26.55;;;;;;;;;;5156792;28;20192;-56
2021/01/09 12:19:24;;;;;;;53.83;26.50;;;;;;;;;;5156125;28;20211;-58
2021/01/09 12:21:52;;;;;;;60.17;25.30;;;;;;;;;;5156513;28;20218;-53
2021/01/09 12:24:20;;;;;;;51.60;22.15;;;;;;;;;;5156613;28;20262;-58
2021/01/09 12:26:56;;;;;;;53.30;23.80;;;;;;;;;;5157272;28;20198;-51
2021/01/09 12:29:29;;;;;;;44.38;20.17;;;;;;;;;;5156417;28;20224;-47
2021/01/09 12:31:56;;;;;;;49.90;21.10;;;;;;;;;;5156675;28;20185;-51
2021/01/09 12:34:30;;;;;;;46.40;24.00;;;;;;;;;;5157005;27;20187;-53
2021/01/09 12:36:56;;;;;;;41.42;20.15;;;;;;;;;;5156654;27;20187;-47
2021/01/09 12:39:23;;;;;;;48.83;22.98;;;;;;;;;;5156806;27;20239;-51
2021/01/09 12:41:52;;;;;;;39.55;18.40;;;;;;;;;;5138142;28;20235;-55
2021/01/09 12:44:19;;;;;;;36.03;18.88;;;;;;;;;;5135748;28;20218;-52
2021/01/09 12:46:48;;;;;;;39.38;18.15;;;;;;;;;;5148808;28;20187;-50
2021/01/09 12:49:46;;;;;;;37.28;20.38;;;;;;;;;;5156408;28;20230;-53
2021/01/09 12:52:13;;;;;;;41.47;21.35;;;;;;;;;;5155811;28;20206;-53
2021/01/09 12:54:39;;;;;;;44.33;22.35;;;;;;;;;;5155890;28;20220;-57
2021/01/09 12:57:13;;;;;;;47.30;23.60;;;;;;;;;;5158011;27;20194;-58
2021/01/09 12:59:40;;;;;;;50.10;23.52;;;;;;;;;;5160152;27;20191;-52
2021/01/09 13:02:08;;;;;;;45.78;23.25;;;;;;;;;;5159673;27;20254;-51
2021/01/09 13:04:35;;;;;;;53.78;25.55;;;;;;;;;;5159845;27;20190;-54
2021/01/09 13:07:01;;;;;;;44.42;20.40;;;;;;;;;;5159728;27;20179;-50
2021/01/09 13:12:33;;;;;;;51.20;23.20;;;;;;;;;;5139593;28;20197;-52
2021/01/09 13:15:00;;;;;;;60.10;25.80;;;;;;;;;;5139799;28;20191;-56
2021/01/09 13:17:27;;;;;;;50.47;23.73;;;;;;;;;;5139345;28;20200;-50
2021/01/09 13:19:55;;;;;;;49.92;22.67;;;;;;;;;;5138174;28;20212;-55
2021/01/09 13:22:22;;;;;;;44.28;20.52;;;;;;;;;;5138342;28;20231;-50
2021/01/09 13:25:09;;;;;;;46.35;22.88;;;;;;;;;;5138607;28;20192;-52
2021/01/09 13:27:37;;;;;;;46.17;21.20;;;;;;;;;;5133928;27;20183;-52
2021/01/09 13:30:05;;;;;;;55.97;24.02;;;;;;;;;;5129017;27;20211;-50
2021/01/09 13:35:36;;;;;;;52.92;24.17;;;;;;;;;;5138825;28;20185;-54
2021/01/09 13:38:03;;;;;;;49.22;23.75;;;;;;;;;;5138603;27;20191;-53
2021/01/09 13:40:31;;;;;;;61.63;28.30;;;;;;;;;;5138130;28;20207;-56
2021/01/09 13:43:13;;;;;;;57.42;25.20;;;;;;;;;;5127069;28;20230;-55
2021/01/09 13:45:42;;;;;;;50.85;24.63;;;;;;;;;;5110208;28;20188;-58
2021/01/09 13:48:09;;;;;;;50.50;23.33;;;;;;;;;;5146331;27;20211;-51
2021/01/09 13:53:41;;;;;;;48.10;23.80;;;;;;;;;;5135275;28;20232;-49
2021/01/09 13:56:07;;;;;;;49.92;23.08;;;;;;;;;;5137996;28;20196;-54
2021/01/09 13:58:36;;;;;;;39.35;21.95;;;;;;;;;;5137873;28;20187;-49
2021/01/09 14:01:03;;;;;;;45.97;21.05;;;;;;;;;;5136964;28;20215;-57
2021/01/09 14:03:35;;;;;;;49.92;23.42;;;;;;;;;;5138056;28;20215;-57
2021/01/09 14:06:02;;;;;;;42.63;21.50;;;;;;;;;;5132698;28;20215;-57
2021/01/09 14:08:45;;;;;;;46.42;23.08;;;;;;;;;;5142345;27;20230;-50
2021/01/09 14:11:13;;;;;;;42.35;20.50;;;;;;;;;;5117725;28;20207;-55
2021/01/09 14:13:40;;;;;;;45.05;20.48;;;;;;;;;;5142944;27;20350;-53
2021/01/09 14:16:06;;;;;;;45.38;21.65;;;;;;;;;;5154238;27;20192;-52
2021/01/09 14:18:47;;;;;;;38.00;20.25;;;;;;;;;;5138125;28;20196;-57
2021/01/09 14:21:53;;;;;;;48.33;21.80;;;;;;;;;;5129134;28;20210;-54
2021/01/09 14:24:33;;;;;;;46.63;23.00;;;;;;;;;;5143872;27;20203;-54
2021/01/09 14:27:02;;;;;;;44.38;22.85;;;;;;;;;;5129545;28;20202;-56
2021/01/09 14:29:39;;;;;;;48.72;24.17;;;;;;;;;;5138151;28;20203;-55
2021/01/09 14:32:10;;;;;;;35.95;21.23;;;;;;;;;;5137310;28;20196;-54
2021/01/09 14:34:37;;;;;;;42.13;21.38;;;;;;;;;;5117176;28;20265;-52
2021/01/09 14:37:04;;;;;;;46.38;24.30;;;;;;;;;;5124078;28;20367;-49
2021/01/09 14:39:31;;;;;;;43.65;21.65;;;;;;;;;;5137965;28;20187;-53
2021/01/09 14:41:58;;;;;;;54.92;24.67;;;;;;;;;;5127171;28;20230;-51
2021/01/09 14:44:56;;;;;;;47.35;23.60;;;;;;;;;;5117582;28;20192;-49
2021/01/09 14:47:23;;;;;;;46.92;24.33;;;;;;;;;;5117609;28;20199;-53
2021/01/09 14:49:51;;;;;;;54.35;27.83;;;;;;;;;;5121821;28;20281;-57
2021/01/09 14:52:27;;;;;;;56.05;27.67;;;;;;;;;;5124388;28;20198;-60
2021/01/09 14:54:54;;;;;;;50.67;23.13;;;;;;;;;;5126699;28;20223;-52
2021/01/09 14:57:21;;;;;;;47.85;24.77;;;;;;;;;;5131261;28;20248;-54
2021/01/09 15:00:03;;;;;;;43.55;23.65;;;;;;;;;;5137302;28;20219;-55
2021/01/09 15:02:39;;;;;;;50.00;23.42;;;;;;;;;;5126739;28;20219;-56
2021/01/09 15:05:06;;;;;;;44.58;23.98;;;;;;;;;;5122952;28;20186;-51
2021/01/09 15:07:34;;;;;;;43.25;21.50;;;;;;;;;;5128311;28;20215;-53
2021/01/09 15:10:00;;;;;;;48.97;24.25;;;;;;;;;;5122989;28;20196;-51
2021/01/09 15:12:47;;;;;;;47.78;26.88;;;;;;;;;;5125319;28;20207;-56